createdAt,value
2018-09-09T00:00:01.760Z,100214.00
2018-09-09T00:02:30.957Z,100211.00
2018-09-09T00:05:01.101Z,100203.00
2018-09-09T00:07:30.211Z,100202.00
2018-09-09T00:09:59.413Z,100206.00
2018-09-09T00:12:28.585Z,100204.00
2018-09-09T00:14:57.671Z,100203.00
2018-09-09T00:19:55.588Z,100192.00
2018-09-09T00:22:24.605Z,100203.00
2018-09-09T00:24:53.640Z,100203.00
2018-09-09T00:27:22.672Z,100199.00
2018-09-09T00:29:51.686Z,100207.00
2018-09-09T00:32:20.760Z,100205.00
2018-09-09T00:34:49.817Z,100205.00
2018-09-09T00:37:18.827Z,100214.00
2018-09-09T00:39:47.877Z,100205.00
2018-09-09T00:42:16.887Z,100204.00
2018-09-09T00:44:45.992Z,100197.00
2018-09-09T00:47:15.009Z,100194.00
2018-09-09T00:49:49.525Z,100189.00
2018-09-09T00:52:23.955Z,100189.00
2018-09-09T00:54:52.968Z,100185.00
2018-09-09T00:57:22.028Z,100184.00
2018-09-09T00:59:51.048Z,100185.00
2018-09-09T01:02:20.083Z,100187.00
2018-09-09T01:04:49.109Z,100183.00
2018-09-09T01:07:18.124Z,100191.00
2018-09-09T01:09:47.124Z,100202.00
2018-09-09T01:12:16.199Z,100203.00
2018-09-09T01:14:45.240Z,100203.00
2018-09-09T01:17:14.335Z,100200.00
2018-09-09T01:19:43.797Z,100203.00
2018-09-09T01:22:12.960Z,100205.00
2018-09-09T01:24:42.255Z,100210.00
2018-09-09T01:27:11.387Z,100207.00
2018-09-09T01:29:40.620Z,100201.00
2018-09-09T01:32:09.688Z,100210.00
2018-09-09T01:34:38.882Z,100201.00
2018-09-09T01:37:07.912Z,100198.00
2018-09-09T01:39:36.982Z,100196.00
2018-09-09T01:42:05.996Z,100199.00
2018-09-09T01:44:34.995Z,100191.00
2018-09-09T01:47:04.017Z,100187.00
2018-09-09T01:49:33.039Z,100177.00
2018-09-09T01:52:02.086Z,100176.00
2018-09-09T01:54:31.512Z,100180.00
2018-09-09T01:57:00.573Z,100178.00
2018-09-09T01:59:29.608Z,100186.00
2018-09-09T02:01:58.720Z,100191.00
2018-09-09T02:04:27.741Z,100188.00
2018-09-09T02:06:56.766Z,100196.00
2018-09-09T02:09:25.780Z,100193.00
2018-09-09T02:11:54.827Z,100203.00
2018-09-09T02:14:23.912Z,100201.00
2018-09-09T02:16:52.994Z,100201.00
2018-09-09T02:19:22.112Z,100197.00
2018-09-09T02:21:51.140Z,100204.00
2018-09-09T02:24:20.164Z,100200.00
2018-09-09T02:26:49.213Z,100204.00
2018-09-09T02:29:18.220Z,100205.00
2018-09-09T02:31:47.253Z,100205.00
2018-09-09T02:34:16.270Z,100208.00
2018-09-09T02:36:45.388Z,100203.00
2018-09-09T02:39:14.484Z,100209.00
2018-09-09T02:41:43.529Z,100209.00
2018-09-09T02:44:12.574Z,100209.00
2018-09-09T02:46:41.648Z,100206.00
2018-09-09T02:49:10.707Z,100208.00
2018-09-09T02:51:39.824Z,100207.00
2018-09-09T02:54:08.862Z,100202.00
2018-09-09T02:56:37.876Z,100200.00
2018-09-09T02:59:08.065Z,100204.00
2018-09-09T03:01:37.101Z,100198.00
2018-09-09T03:04:06.141Z,100197.00
2018-09-09T03:06:35.213Z,100199.00
2018-09-09T03:09:05.828Z,100197.00
2018-09-09T03:11:34.941Z,100193.00
2018-09-09T03:14:03.972Z,100186.00
2018-09-09T03:16:33.032Z,100168.00
2018-09-09T03:19:02.056Z,100170.00
2018-09-09T03:21:31.140Z,100177.00
2018-09-09T03:24:00.161Z,100183.00
2018-09-09T03:26:29.283Z,100179.00
2018-09-09T03:28:58.294Z,100178.00
2018-09-09T03:31:27.356Z,100180.00
2018-09-09T03:33:56.415Z,100177.00
2018-09-09T03:36:25.636Z,100169.00
2018-09-09T03:38:54.657Z,100165.00
2018-09-09T03:41:30.368Z,100155.00
2018-09-09T03:43:59.420Z,100152.00
2018-09-09T03:46:28.457Z,100155.00
2018-09-09T03:48:57.479Z,100156.00
2018-09-09T03:51:26.506Z,100148.00
2018-09-09T03:53:55.553Z,100163.00
2018-09-09T03:56:24.590Z,100172.00
2018-09-09T03:58:53.612Z,100185.00
2018-09-09T04:01:22.674Z,100188.00
2018-09-09T04:03:51.769Z,100195.00
2018-09-09T04:06:20.772Z,100195.00
2018-09-09T04:08:49.787Z,100190.00
2018-09-09T04:11:18.822Z,100189.00
2018-09-09T04:13:47.852Z,100192.00
2018-09-09T04:16:17.688Z,100191.00
2018-09-09T04:18:46.715Z,100196.00
2018-09-09T04:21:15.758Z,100198.00
2018-09-09T04:23:56.977Z,100194.00
2018-09-09T04:26:26.108Z,100198.00
2018-09-09T04:28:55.339Z,100196.00
2018-09-09T04:31:24.596Z,100198.00
2018-09-09T04:33:54.681Z,100198.00
2018-09-09T04:36:23.810Z,100210.00
2018-09-09T04:38:53.957Z,100200.00
2018-09-09T04:41:23.746Z,100212.00
2018-09-09T04:43:52.858Z,100208.00
2018-09-09T04:46:22.073Z,100206.00
2018-09-09T04:48:51.128Z,100205.00
2018-09-09T04:51:20.209Z,100202.00
2018-09-09T04:53:55.809Z,100195.00
2018-09-09T04:56:33.304Z,100198.00
2018-09-09T04:59:03.981Z,100204.00
2018-09-09T05:01:33.267Z,100202.00
2018-09-09T05:04:02.557Z,100211.00
2018-09-09T05:06:39.698Z,100205.00
2018-09-09T05:09:09.867Z,100212.00
2018-09-09T05:11:39.253Z,100211.00
2018-09-09T05:14:08.466Z,100215.00
2018-09-09T05:16:39.833Z,100213.00
2018-09-09T05:19:09.965Z,100223.00
2018-09-09T05:21:39.302Z,100222.00
2018-09-09T05:24:08.485Z,100228.00
2018-09-09T05:26:37.641Z,100227.00
2018-09-09T05:29:06.880Z,100224.00
2018-09-09T05:31:36.150Z,100223.00
2018-09-09T05:34:05.381Z,100225.00
2018-09-09T05:36:43.750Z,100219.00
2018-09-09T05:39:12.933Z,100225.00
2018-09-09T05:41:43.245Z,100229.00
2018-09-09T05:44:12.467Z,100231.00
2018-09-09T05:46:41.593Z,100230.00
2018-09-09T05:49:10.695Z,100223.00
2018-09-09T05:51:39.882Z,100232.00
2018-09-09T05:54:09.182Z,100228.00
2018-09-09T05:56:38.294Z,100234.00
2018-09-09T05:59:07.527Z,100239.00
2018-09-09T06:01:36.681Z,100240.00
2018-09-09T06:04:05.847Z,100239.00
2018-09-09T06:06:34.969Z,100242.00
2018-09-09T06:09:05.074Z,100242.00
2018-09-09T06:11:34.232Z,100252.00
2018-09-09T06:14:03.453Z,100255.00
2018-09-09T06:21:29.597Z,100265.00
2018-09-09T06:23:58.641Z,100259.00
2018-09-09T06:26:28.072Z,100263.00
2018-09-09T06:28:57.863Z,100255.00
2018-09-09T06:31:26.932Z,100266.00
2018-09-09T06:33:56.151Z,100270.00
2018-09-09T06:36:25.422Z,100268.00
2018-09-09T06:38:54.744Z,100265.00
2018-09-09T06:41:23.998Z,100260.00
2018-09-09T06:43:53.732Z,100258.00
2018-09-09T06:46:22.970Z,100260.00
2018-09-09T06:48:52.577Z,100259.00
2018-09-09T06:51:21.937Z,100259.00
2018-09-09T06:53:52.291Z,100257.00
2018-09-09T06:56:21.552Z,100264.00
2018-09-09T06:58:50.793Z,100268.00
2018-09-09T07:01:19.910Z,100267.00
2018-09-09T07:03:49.240Z,100263.00
2018-09-09T07:06:18.390Z,100262.00
2018-09-09T07:08:47.627Z,100262.00
2018-09-09T07:11:17.004Z,100264.00
2018-09-09T07:13:46.278Z,100258.00
2018-09-09T07:16:15.432Z,100261.00
2018-09-09T07:18:44.850Z,100267.00
2018-09-09T07:21:14.599Z,100267.00
2018-09-09T07:23:43.808Z,100266.00
2018-09-09T07:26:13.029Z,100266.00
2018-09-09T07:28:42.208Z,100268.00
2018-09-09T07:31:11.454Z,100271.00
2018-09-09T07:33:41.474Z,100270.00
2018-09-09T07:36:10.528Z,100273.00
2018-09-09T07:38:40.485Z,100277.00
2018-09-09T07:41:09.946Z,100275.00
2018-09-09T07:43:39.220Z,100285.00
2018-09-09T07:46:08.297Z,100277.00
2018-09-09T07:48:37.529Z,100285.00
2018-09-09T07:51:06.997Z,100276.00
2018-09-09T07:53:36.167Z,100285.00
2018-09-09T07:56:06.183Z,100286.00
2018-09-09T07:58:35.353Z,100289.00
2018-09-09T08:01:04.717Z,100279.00
2018-09-09T08:03:34.420Z,100277.00
2018-09-09T08:06:03.616Z,100277.00
2018-09-09T08:08:32.704Z,100289.00
2018-09-09T08:11:01.760Z,100290.00
2018-09-09T08:13:30.801Z,100294.00
2018-09-09T08:15:59.872Z,100288.00
2018-09-09T08:18:29.347Z,100292.00
2018-09-09T08:20:58.656Z,100290.00
2018-09-09T08:23:27.676Z,100287.00
2018-09-09T08:25:56.904Z,100296.00
2018-09-09T08:28:26.564Z,100295.00
2018-09-09T08:30:55.820Z,100295.00
2018-09-09T08:33:24.869Z,100293.00
2018-09-09T08:35:53.958Z,100292.00
2018-09-09T08:38:23.168Z,100294.00
2018-09-09T08:40:52.296Z,100293.00
2018-09-09T08:43:21.411Z,100298.00
2018-09-09T08:45:50.768Z,100303.00
2018-09-09T08:48:19.930Z,100304.00
2018-09-09T08:50:50.250Z,100308.00
2018-09-09T08:53:20.247Z,100310.00
2018-09-09T08:55:50.382Z,100306.00
2018-09-09T08:58:21.433Z,100305.00
2018-09-09T09:00:51.382Z,100310.00
2018-09-09T09:03:21.380Z,100313.00
2018-09-09T09:05:52.113Z,100312.00
2018-09-09T09:08:21.588Z,100300.00
2018-09-09T09:10:51.687Z,100301.00
2018-09-09T09:13:21.656Z,100302.00
2018-09-09T09:15:51.937Z,100311.00
2018-09-09T09:18:21.741Z,100306.00
2018-09-09T09:20:52.232Z,100302.00
2018-09-09T09:23:22.136Z,100301.00
2018-09-09T09:25:53.356Z,100303.00
2018-09-09T09:28:23.727Z,100311.00
2018-09-09T09:30:53.777Z,100315.00
2018-09-09T09:33:23.177Z,100316.00
2018-09-09T09:35:54.024Z,100317.00
2018-09-09T09:38:23.683Z,100318.00
2018-09-09T09:40:53.431Z,100311.00
2018-09-09T09:43:22.717Z,100318.00
2018-09-09T09:45:52.874Z,100317.00
2018-09-09T09:48:23.236Z,100315.00
2018-09-09T09:50:53.549Z,100319.00
2018-09-09T09:53:23.310Z,100313.00
2018-09-09T09:55:53.411Z,100312.00
2018-09-09T09:58:23.523Z,100310.00
2018-09-09T10:01:00.905Z,100314.00
2018-09-09T10:03:30.321Z,100315.00
2018-09-09T10:05:59.653Z,100309.00
2018-09-09T10:08:28.971Z,100314.00
2018-09-09T10:10:58.165Z,100315.00
2018-09-09T10:13:27.480Z,100312.00
2018-09-09T10:15:56.732Z,100309.00
2018-09-09T10:18:26.029Z,100313.00
2018-09-09T10:20:55.268Z,100314.00
2018-09-09T10:23:25.120Z,100311.00
2018-09-09T10:25:55.240Z,100306.00
2018-09-09T10:28:25.541Z,100306.00
2018-09-09T10:30:55.807Z,100307.00
2018-09-09T10:33:25.530Z,100315.00
2018-09-09T10:35:55.725Z,100315.00
2018-09-09T10:38:24.940Z,100313.00
2018-09-09T10:40:54.379Z,100311.00
2018-09-09T10:43:28.140Z,100307.00
2018-09-09T10:46:05.223Z,100310.00
2018-09-09T10:48:40.059Z,100308.00
2018-09-09T10:51:14.260Z,100305.00
2018-09-09T10:53:45.313Z,100309.00
2018-09-09T10:56:16.783Z,100305.00
2018-09-09T10:58:49.340Z,100302.00
2018-09-09T11:01:22.677Z,100310.00
2018-09-09T11:03:58.772Z,100299.00
2018-09-09T11:06:37.273Z,100305.00
2018-09-09T11:09:18.362Z,100298.00
2018-09-09T11:11:52.853Z,100293.00
2018-09-09T11:14:32.464Z,100293.00
2018-09-09T11:17:08.652Z,100290.00
2018-09-09T11:19:52.230Z,100289.00
2018-09-09T11:22:28.170Z,100285.00
2018-09-09T11:25:01.904Z,100286.00
2018-09-09T11:27:36.644Z,100280.00
2018-09-09T11:30:12.764Z,100280.00
2018-09-09T11:32:44.610Z,100265.00
2018-09-09T11:35:19.737Z,100279.00
2018-09-09T11:37:53.404Z,100276.00
2018-09-09T11:40:28.822Z,100273.00
2018-09-09T11:42:59.634Z,100272.00
2018-09-09T11:45:32.181Z,100269.00
2018-09-09T11:48:06.476Z,100266.00
2018-09-09T11:50:43.566Z,100261.00
2018-09-09T11:53:17.878Z,100260.00
2018-09-09T11:55:49.431Z,100261.00
2018-09-09T11:58:22.140Z,100249.00
2018-09-09T12:00:57.066Z,100259.00
2018-09-09T12:03:30.531Z,100253.00
2018-09-09T12:06:05.556Z,100261.00
2018-09-09T12:08:42.088Z,100254.00
2018-09-09T12:14:15.484Z,100251.00
2018-09-09T12:16:45.016Z,100244.00
2018-09-09T12:19:15.607Z,100246.00
2018-09-09T12:21:45.359Z,100248.00
2018-09-09T12:24:15.095Z,100247.00
2018-09-09T12:26:45.400Z,100241.00
2018-09-09T12:29:15.074Z,100241.00
2018-09-09T12:31:44.455Z,100239.00
2018-09-09T12:34:14.047Z,100239.00
2018-09-09T12:36:43.483Z,100239.00
2018-09-09T12:39:12.806Z,100240.00
2018-09-09T12:41:42.532Z,100242.00
2018-09-09T12:44:17.215Z,100246.00
2018-09-09T12:46:51.956Z,100247.00
2018-09-09T12:49:21.399Z,100245.00
2018-09-09T12:51:51.805Z,100245.00
2018-09-09T12:54:21.263Z,100246.00
2018-09-09T12:56:51.045Z,100246.00
2018-09-09T12:59:20.440Z,100239.00
2018-09-09T13:01:49.789Z,100239.00
2018-09-09T13:04:19.261Z,100240.00
2018-09-09T13:06:49.404Z,100249.00
2018-09-09T13:09:18.894Z,100245.00
2018-09-09T13:11:48.414Z,100244.00
2018-09-09T13:14:20.678Z,100233.00
2018-09-09T13:16:50.156Z,100232.00
2018-09-09T13:19:19.504Z,100235.00
2018-09-09T13:21:49.668Z,100235.00
2018-09-09T13:24:18.987Z,100240.00
2018-09-09T13:26:48.279Z,100238.00
2018-09-09T13:29:17.597Z,100241.00
2018-09-09T13:31:47.198Z,100238.00
2018-09-09T13:34:16.747Z,100244.00
2018-09-09T13:36:46.144Z,100237.00
2018-09-09T13:39:15.941Z,100240.00
2018-09-09T13:41:45.463Z,100233.00
2018-09-09T13:44:15.810Z,100227.00
2018-09-09T13:46:45.718Z,100227.00
2018-09-09T13:49:15.153Z,100221.00
2018-09-09T13:51:45.165Z,100226.00
2018-09-09T13:54:14.412Z,100231.00
2018-09-09T13:56:44.272Z,100226.00
2018-09-09T13:59:13.803Z,100224.00
2018-09-09T14:01:43.766Z,100224.00
2018-09-09T14:04:13.528Z,100211.00
2018-09-09T14:06:42.754Z,100222.00
2018-09-09T14:09:12.017Z,100218.00
2018-09-09T14:11:42.004Z,100223.00
2018-09-09T14:14:11.760Z,100217.00
2018-09-09T14:16:41.512Z,100212.00
2018-09-09T14:19:11.518Z,100211.00
2018-09-09T14:21:40.987Z,100212.00
2018-09-09T14:24:10.954Z,100215.00
2018-09-09T14:26:40.246Z,100213.00
2018-09-09T14:29:09.848Z,100217.00
2018-09-09T14:31:39.125Z,100215.00
2018-09-09T14:34:08.565Z,100215.00
2018-09-09T14:36:38.132Z,100220.00
2018-09-09T14:39:09.542Z,100218.00
2018-09-09T14:41:39.166Z,100213.00
2018-09-09T14:44:08.370Z,100212.00
2018-09-09T14:46:38.399Z,100212.00
2018-09-09T14:49:07.788Z,100217.00
2018-09-09T14:51:37.344Z,100217.00
2018-09-09T14:54:07.005Z,100214.00
2018-09-09T14:56:36.288Z,100216.00
2018-09-09T14:59:05.550Z,100214.00
2018-09-09T15:01:35.201Z,100213.00
2018-09-09T15:04:04.645Z,100213.00
2018-09-09T15:06:34.061Z,100216.00
2018-09-09T15:09:03.312Z,100217.00
2018-09-09T15:11:33.029Z,100212.00
2018-09-09T15:14:02.453Z,100213.00
2018-09-09T15:16:32.829Z,100218.00
2018-09-09T15:19:02.080Z,100215.00
2018-09-09T15:21:31.400Z,100213.00
2018-09-09T15:24:00.508Z,100210.00
2018-09-09T15:26:29.909Z,100209.00
2018-09-09T15:29:00.654Z,100208.00
2018-09-09T15:31:29.847Z,100209.00
2018-09-09T15:33:59.625Z,100206.00
2018-09-09T15:36:29.000Z,100205.00
2018-09-09T15:38:58.559Z,100208.00
2018-09-09T15:41:27.903Z,100203.00
2018-09-09T15:43:57.853Z,100206.00
2018-09-09T15:46:27.474Z,100211.00
2018-09-09T15:48:56.714Z,100208.00
2018-09-09T15:51:26.111Z,100209.00
2018-09-09T15:53:55.532Z,100201.00
2018-09-09T15:56:25.127Z,100208.00
2018-09-09T15:58:54.661Z,100203.00
2018-09-09T16:01:24.205Z,100203.00
2018-09-09T16:03:53.765Z,100201.00
2018-09-09T16:06:23.245Z,100197.00
2018-09-09T16:08:52.767Z,100199.00
2018-09-09T16:11:21.958Z,100201.00
2018-09-09T16:13:51.588Z,100208.00
2018-09-09T16:16:21.477Z,100203.00
2018-09-09T16:18:50.818Z,100206.00
2018-09-09T16:21:20.189Z,100199.00
2018-09-09T16:23:49.378Z,100202.00
2018-09-09T16:26:18.583Z,100201.00
2018-09-09T16:28:47.847Z,100203.00
2018-09-09T16:31:18.256Z,100204.00
2018-09-09T16:33:47.675Z,100207.00
2018-09-09T16:36:17.151Z,100205.00
2018-09-09T16:38:46.962Z,100195.00
2018-09-09T16:41:16.205Z,100193.00
2018-09-09T16:43:45.997Z,100195.00
2018-09-09T16:46:15.338Z,100194.00
2018-09-09T16:48:44.782Z,100190.00
2018-09-09T16:51:14.182Z,100190.00
2018-09-09T16:53:43.777Z,100191.00
2018-09-09T16:56:13.169Z,100192.00
2018-09-09T16:58:42.493Z,100189.00
2018-09-09T17:01:11.845Z,100189.00
2018-09-09T17:03:41.065Z,100191.00
2018-09-09T17:06:11.202Z,100192.00
2018-09-09T17:08:40.478Z,100191.00
2018-09-09T17:11:10.103Z,100192.00
2018-09-09T17:13:39.281Z,100190.00
2018-09-09T17:16:08.955Z,100184.00
2018-09-09T17:18:38.441Z,100185.00
2018-09-09T17:21:08.973Z,100189.00
2018-09-09T17:23:39.284Z,100197.00
2018-09-09T17:26:08.610Z,100195.00
2018-09-09T17:28:37.991Z,100194.00
2018-09-09T17:31:07.206Z,100192.00
2018-09-09T17:33:36.536Z,100187.00
2018-09-09T17:36:05.966Z,100191.00
2018-09-09T17:38:35.445Z,100190.00
2018-09-09T17:41:07.206Z,100188.00
2018-09-09T17:43:36.273Z,100193.00
2018-09-09T17:46:05.685Z,100200.00
2018-09-09T17:48:35.389Z,100198.00
2018-09-09T17:51:04.614Z,100198.00
2018-09-09T17:53:34.457Z,100194.00
2018-09-09T17:56:03.835Z,100199.00
2018-09-09T17:58:33.545Z,100197.00
2018-09-09T18:01:03.146Z,100199.00
2018-09-09T18:03:33.102Z,100205.00
2018-09-09T18:06:02.485Z,100207.00
2018-09-09T18:08:31.794Z,100199.00
2018-09-09T18:11:01.802Z,100205.00
2018-09-09T18:13:32.146Z,100203.00
2018-09-09T18:16:01.651Z,100205.00
2018-09-09T18:18:31.376Z,100210.00
2018-09-09T18:21:00.769Z,100208.00
2018-09-09T18:23:30.594Z,100213.00
2018-09-09T18:26:00.035Z,100214.00
2018-09-09T18:28:29.549Z,100209.00
2018-09-09T18:30:59.233Z,100208.00
2018-09-09T18:33:28.844Z,100214.00
2018-09-09T18:35:58.457Z,100209.00
2018-09-09T18:38:28.172Z,100207.00
2018-09-09T18:40:58.019Z,100204.00
2018-09-09T18:43:27.651Z,100208.00
2018-09-09T18:45:57.293Z,100206.00
2018-09-09T18:48:26.944Z,100211.00
2018-09-09T18:50:58.124Z,100214.00
2018-09-09T18:53:27.966Z,100219.00
2018-09-09T18:55:57.085Z,100231.00
2018-09-09T18:58:27.015Z,100231.00
2018-09-09T19:00:57.813Z,100230.00
2018-09-09T19:03:27.565Z,100233.00
2018-09-09T19:05:57.468Z,100229.00
2018-09-09T19:08:27.550Z,100232.00
2018-09-09T19:10:57.101Z,100234.00
2018-09-09T19:13:26.726Z,100234.00
2018-09-09T19:15:56.636Z,100234.00
2018-09-09T19:18:27.669Z,100226.00
2018-09-09T19:20:57.812Z,100231.00
2018-09-09T19:23:27.553Z,100234.00
2018-09-09T19:25:57.410Z,100228.00
2018-09-09T19:28:28.203Z,100235.00
2018-09-09T19:30:58.040Z,100231.00
2018-09-09T19:33:27.785Z,100231.00
2018-09-09T19:35:57.357Z,100240.00
2018-09-09T19:38:26.968Z,100238.00
2018-09-09T19:40:56.601Z,100237.00
2018-09-09T19:43:29.637Z,100242.00
2018-09-09T19:45:59.365Z,100240.00
2018-09-09T19:48:31.570Z,100240.00
2018-09-09T19:51:01.183Z,100237.00
2018-09-09T19:53:30.892Z,100240.00
2018-09-09T19:56:00.029Z,100240.00
2018-09-09T19:58:29.809Z,100237.00
2018-09-09T20:00:59.247Z,100243.00
2018-09-09T20:03:30.367Z,100243.00
2018-09-09T20:05:59.842Z,100240.00
2018-09-09T20:08:29.846Z,100244.00
2018-09-09T20:10:59.748Z,100241.00
2018-09-09T20:13:29.252Z,100239.00
2018-09-09T20:15:59.204Z,100241.00
2018-09-09T20:18:28.425Z,100240.00
2018-09-09T20:20:57.977Z,100247.00
2018-09-09T20:23:27.450Z,100249.00
2018-09-09T20:25:57.070Z,100248.00
2018-09-09T20:28:26.624Z,100247.00
2018-09-09T20:30:56.340Z,100248.00
2018-09-09T20:33:25.849Z,100243.00
2018-09-09T20:35:56.276Z,100240.00
2018-09-09T20:38:26.962Z,100240.00
2018-09-09T20:40:56.609Z,100246.00
2018-09-09T20:43:26.948Z,100241.00
2018-09-09T20:45:56.500Z,100241.00
2018-09-09T20:48:26.390Z,100244.00
2018-09-09T20:50:56.157Z,100252.00
2018-09-09T20:53:25.217Z,100253.00
2018-09-09T20:55:54.359Z,100249.00
2018-09-09T20:58:23.501Z,100252.00
2018-09-09T21:00:52.785Z,100245.00
2018-09-09T21:03:21.865Z,100250.00
2018-09-09T21:10:48.381Z,100247.00
2018-09-09T21:13:20.211Z,100245.00
2018-09-09T21:15:49.537Z,100246.00
2018-09-09T21:18:19.857Z,100242.00
2018-09-09T21:20:50.794Z,100243.00
2018-09-09T21:23:20.573Z,100242.00
2018-09-09T21:25:50.601Z,100238.00
2018-09-09T21:28:19.653Z,100237.00
2018-09-09T21:30:49.025Z,100238.00
2018-09-09T21:33:18.311Z,100236.00
2018-09-09T21:35:47.439Z,100236.00
2018-09-09T21:38:17.498Z,100230.00
2018-09-09T21:40:48.490Z,100227.00
2018-09-09T21:43:23.459Z,100225.00
2018-09-09T21:45:53.915Z,100221.00
2018-09-09T21:48:24.112Z,100224.00
2018-09-09T21:50:56.487Z,100225.00
2018-09-09T21:53:26.420Z,100216.00
2018-09-09T21:55:56.588Z,100212.00
2018-09-09T21:58:26.430Z,100212.00
2018-09-09T22:01:05.625Z,100201.00
2018-09-09T22:03:36.124Z,100198.00
2018-09-09T22:06:09.534Z,100201.00
2018-09-09T22:08:39.654Z,100196.00
2018-09-09T22:11:12.059Z,100190.00
2018-09-09T22:13:44.793Z,100189.00
2018-09-09T22:16:14.871Z,100194.00
2018-09-09T22:18:46.303Z,100192.00
2018-09-09T22:21:17.462Z,100190.00
2018-09-09T22:23:47.954Z,100190.00
2018-09-09T22:26:19.696Z,100191.00
2018-09-09T22:28:53.943Z,100190.00
2018-09-09T22:31:26.141Z,100188.00
2018-09-09T22:33:57.070Z,100187.00
2018-09-09T22:41:39.827Z,100190.00
2018-09-09T22:44:13.240Z,100182.00
2018-09-09T22:46:46.909Z,100182.00
2018-09-09T22:49:18.523Z,100193.00
2018-09-09T22:51:49.052Z,100186.00
2018-09-09T22:54:21.634Z,100184.00
2018-09-09T22:56:51.741Z,100186.00
2018-09-09T22:59:25.223Z,100184.00
2018-09-09T23:01:55.116Z,100182.00
2018-09-09T23:04:25.237Z,100180.00
2018-09-09T23:06:55.392Z,100178.00
2018-09-09T23:09:25.019Z,100177.00
2018-09-09T23:11:55.334Z,100175.00
2018-09-09T23:14:26.853Z,100178.00
2018-09-09T23:16:58.309Z,100176.00
2018-09-09T23:19:28.165Z,100175.00
2018-09-09T23:22:00.005Z,100175.00
2018-09-09T23:24:29.915Z,100170.00
2018-09-09T23:27:00.021Z,100169.00
2018-09-09T23:29:30.863Z,100170.00
2018-09-09T23:32:01.094Z,100165.00
2018-09-09T23:34:31.442Z,100164.00
2018-09-09T23:37:01.363Z,100163.00
2018-09-09T23:39:31.767Z,100155.00
2018-09-09T23:42:02.311Z,100149.00
2018-09-09T23:44:33.378Z,100151.00
2018-09-09T23:47:06.108Z,100154.00
2018-09-09T23:49:36.512Z,100157.00
2018-09-09T23:52:06.990Z,100151.00
2018-09-09T23:54:38.208Z,100151.00
2018-09-09T23:57:08.607Z,100154.00
2018-09-09T23:59:39.455Z,100152.00
